sensor_id;sensor_type;location;lat;lon;timestamp;pressure;altitude;pressure_sealevel;temperature;humidity
17383;BME280;8809;51.892;8.384;2023-05-31T00:01:06;101563.91;;;13.84;98.16
17383;BME280;8809;51.892;8.384;2023-05-31T00:03:35;101558.50;;;13.81;97.31
17383;BME280;8809;51.892;8.384;2023-05-31T00:06:06;101564.59;;;13.80;97.86
17383;BME280;8809;51.892;8.384;2023-05-31T00:08:35;101561.81;;;13.77;97.17
17383;BME280;8809;51.892;8.384;2023-05-31T00:11:02;101569.59;;;13.75;98.03
17383;BME280;8809;51.892;8.384;2023-05-31T00:13:30;101563.34;;;13.71;96.83
17383;BME280;8809;51.892;8.384;2023-05-31T00:15:58;101571.97;;;13.69;97.80
17383;BME280;8809;51.892;8.384;2023-05-31T00:18:25;101571.00;;;13.67;97.92
17383;BME280;8809;51.892;8.384;2023-05-31T00:20:53;101571.78;;;13.64;97.79
17383;BME280;8809;51.892;8.384;2023-05-31T00:23:22;101572.53;;;13.62;98.38
17383;BME280;8809;51.892;8.384;2023-05-31T00:25:50;101569.84;;;13.60;98.22
17383;BME280;8809;51.892;8.384;2023-05-31T00:28:17;101568.88;;;13.58;98.10
17383;BME280;8809;51.892;8.384;2023-05-31T00:30:44;101564.38;;;13.56;98.15
17383;BME280;8809;51.892;8.384;2023-05-31T00:33:12;101565.16;;;13.53;98.57
17383;BME280;8809;51.892;8.384;2023-05-31T00:35:39;101568.53;;;13.51;98.07
17383;BME280;8809;51.892;8.384;2023-05-31T00:38:07;101558.78;;;13.48;98.42
17383;BME280;8809;51.892;8.384;2023-05-31T00:40:34;101562.16;;;13.46;99.48
17383;BME280;8809;51.892;8.384;2023-05-31T00:43:02;101562.13;;;13.44;99.40
17383;BME280;8809;51.892;8.384;2023-05-31T00:45:30;101561.97;;;13.41;98.84
17383;BME280;8809;51.892;8.384;2023-05-31T00:47:59;101560.19;;;13.40;100.00
17383;BME280;8809;51.892;8.384;2023-05-31T00:50:27;101565.28;;;13.37;100.00
17383;BME280;8809;51.892;8.384;2023-05-31T00:52:55;101569.50;;;13.33;100.00
17383;BME280;8809;51.892;8.384;2023-05-31T00:55:24;101565.91;;;13.31;99.89
17383;BME280;8809;51.892;8.384;2023-05-31T00:57:51;101575.41;;;13.29;99.68
17383;BME280;8809;51.892;8.384;2023-05-31T01:00:20;101580.56;;;13.28;99.29
17383;BME280;8809;51.892;8.384;2023-05-31T01:02:47;101586.63;;;13.27;99.85
17383;BME280;8809;51.892;8.384;2023-05-31T01:05:17;101581.28;;;13.24;99.39
17383;BME280;8809;51.892;8.384;2023-05-31T01:07:44;101577.69;;;13.22;99.40
17383;BME280;8809;51.892;8.384;2023-05-31T01:10:12;101571.47;;;13.20;99.36
17383;BME280;8809;51.892;8.384;2023-05-31T01:12:49;101577.47;;;13.17;99.28
17383;BME280;8809;51.892;8.384;2023-05-31T01:15:27;101570.38;;;13.15;99.49
17383;BME280;8809;51.892;8.384;2023-05-31T01:18:02;101571.09;;;13.12;100.00
17383;BME280;8809;51.892;8.384;2023-05-31T01:20:36;101569.22;;;13.10;99.78
17383;BME280;8809;51.892;8.384;2023-05-31T01:23:15;101559.47;;;13.07;100.00
17383;BME280;8809;51.892;8.384;2023-05-31T01:25:58;101565.50;;;13.05;100.00
17383;BME280;8809;51.892;8.384;2023-05-31T01:28:33;101560.91;;;13.00;100.00
17383;BME280;8809;51.892;8.384;2023-05-31T01:31:05;101559.13;;;12.99;100.00
17383;BME280;8809;51.892;8.384;2023-05-31T01:33:35;101570.38;;;12.97;100.00
17383;BME280;8809;51.892;8.384;2023-05-31T01:36:03;101564.16;;;12.95;100.00
17383;BME280;8809;51.892;8.384;2023-05-31T01:38:30;101582.41;;;12.93;100.00
17383;BME280;8809;51.892;8.384;2023-05-31T01:40:58;101566.63;;;12.92;100.00
17383;BME280;8809;51.892;8.384;2023-05-31T01:43:25;101572.59;;;12.89;100.00
17383;BME280;8809;51.892;8.384;2023-05-31T01:45:56;101573.44;;;12.88;100.00
17383;BME280;8809;51.892;8.384;2023-05-31T01:48:24;101568.06;;;12.85;100.00
17383;BME280;8809;51.892;8.384;2023-05-31T01:50:54;101570.59;;;12.84;100.00
17383;BME280;8809;51.892;8.384;2023-05-31T01:53:23;101571.34;;;12.81;100.00
17383;BME280;8809;51.892;8.384;2023-05-31T01:55:50;101566.94;;;12.80;100.00
17383;BME280;8809;51.892;8.384;2023-05-31T01:58:17;101569.44;;;12.77;100.00
17383;BME280;8809;51.892;8.384;2023-05-31T02:00:45;101558.97;;;12.77;100.00
17383;BME280;8809;51.892;8.384;2023-05-31T02:03:14;101566.72;;;12.76;100.00
17383;BME280;8809;51.892;8.384;2023-05-31T02:05:54;101561.34;;;12.73;100.00
17383;BME280;8809;51.892;8.384;2023-05-31T02:08:23;101560.44;;;12.72;100.00
17383;BME280;8809;51.892;8.384;2023-05-31T02:10:50;101557.75;;;12.71;100.00
17383;BME280;8809;51.892;8.384;2023-05-31T02:13:18;101555.03;;;12.69;100.00
17383;BME280;8809;51.892;8.384;2023-05-31T02:15:45;101558.50;;;12.68;100.00
17383;BME280;8809;51.892;8.384;2023-05-31T02:18:16;101556.72;;;12.67;100.00
17383;BME280;8809;51.892;8.384;2023-05-31T02:20:43;101553.19;;;12.67;100.00
17383;BME280;8809;51.892;8.384;2023-05-31T02:23:10;101557.53;;;12.66;100.00
17383;BME280;8809;51.892;8.384;2023-05-31T02:25:38;101555.75;;;12.65;100.00
17383;BME280;8809;51.892;8.384;2023-05-31T02:28:05;101543.38;;;12.62;100.00
17383;BME280;8809;51.892;8.384;2023-05-31T02:30:35;101545.94;;;12.61;100.00
17383;BME280;8809;51.892;8.384;2023-05-31T02:33:05;101547.66;;;12.60;100.00
17383;BME280;8809;51.892;8.384;2023-05-31T02:35:34;101546.75;;;12.60;100.00
17383;BME280;8809;51.892;8.384;2023-05-31T02:38:01;101547.59;;;12.59;100.00
17383;BME280;8809;51.892;8.384;2023-05-31T02:40:28;101547.53;;;12.57;100.00
17383;BME280;8809;51.892;8.384;2023-05-31T02:42:55;101548.34;;;12.56;100.00
17383;BME280;8809;51.892;8.384;2023-05-31T02:45:22;101543.03;;;12.55;100.00
17383;BME280;8809;51.892;8.384;2023-05-31T02:47:49;101543.84;;;12.54;100.00
17383;BME280;8809;51.892;8.384;2023-05-31T02:50:17;101546.38;;;12.52;100.00
17383;BME280;8809;51.892;8.384;2023-05-31T02:52:45;101537.63;;;12.52;100.00
17383;BME280;8809;51.892;8.384;2023-05-31T02:55:12;101531.41;;;12.50;100.00
17383;BME280;8809;51.892;8.384;2023-05-31T02:57:40;101532.28;;;12.49;100.00
17383;BME280;8809;51.892;8.384;2023-05-31T03:00:08;101543.56;;;12.48;100.00
17383;BME280;8809;51.892;8.384;2023-05-31T03:02:37;101541.75;;;12.47;100.00
17383;BME280;8809;51.892;8.384;2023-05-31T03:05:05;101534.72;;;12.46;100.00
17383;BME280;8809;51.892;8.384;2023-05-31T03:07:34;101537.19;;;12.43;100.00
17383;BME280;8809;51.892;8.384;2023-05-31T03:10:03;101538.91;;;12.42;100.00
17383;BME280;8809;51.892;8.384;2023-05-31T03:12:31;101531.81;;;12.40;100.00
17383;BME280;8809;51.892;8.384;2023-05-31T03:14:59;101542.22;;;12.38;100.00
17383;BME280;8809;51.892;8.384;2023-05-31T03:17:26;101540.34;;;12.36;100.00
17383;BME280;8809;51.892;8.384;2023-05-31T03:19:54;101544.59;;;12.34;100.00
17383;BME280;8809;51.892;8.384;2023-05-31T03:22:21;101545.31;;;12.31;100.00
17383;BME280;8809;51.892;8.384;2023-05-31T03:24:48;101553.13;;;12.30;100.00
17383;BME280;8809;51.892;8.384;2023-05-31T03:27:17;101544.28;;;12.27;100.00
17383;BME280;8809;51.892;8.384;2023-05-31T03:29:44;101547.56;;;12.23;100.00
17383;BME280;8809;51.892;8.384;2023-05-31T03:32:11;101542.25;;;12.22;100.00
17383;BME280;8809;51.892;8.384;2023-05-31T03:34:38;101548.25;;;12.19;100.00
17383;BME280;8809;51.892;8.384;2023-05-31T03:37:06;101541.97;;;12.16;100.00
17383;BME280;8809;51.892;8.384;2023-05-31T03:39:33;101546.28;;;12.15;100.00
17383;BME280;8809;51.892;8.384;2023-05-31T03:42:01;101546.13;;;12.12;100.00
17383;BME280;8809;51.892;8.384;2023-05-31T03:44:30;101545.22;;;12.12;100.00
17383;BME280;8809;51.892;8.384;2023-05-31T03:46:57;101539.06;;;12.10;100.00
17383;BME280;8809;51.892;8.384;2023-05-31T03:49:24;101545.91;;;12.08;100.00
17383;BME280;8809;51.892;8.384;2023-05-31T03:51:51;101545.91;;;12.08;100.00
17383;BME280;8809;51.892;8.384;2023-05-31T03:54:18;101545.84;;;12.06;100.00
17383;BME280;8809;51.892;8.384;2023-05-31T03:56:46;101548.38;;;12.05;100.00
17383;BME280;8809;51.892;8.384;2023-05-31T03:59:12;101553.50;;;12.03;100.00
17383;BME280;8809;51.892;8.384;2023-05-31T04:01:41;101549.09;;;12.02;100.00
17383;BME280;8809;51.892;8.384;2023-05-31T04:04:08;101543.88;;;12.02;100.00
17383;BME280;8809;51.892;8.384;2023-05-31T04:06:36;101537.75;;;12.02;100.00
17383;BME280;8809;51.892;8.384;2023-05-31T04:09:04;101543.81;;;12.01;100.00
17383;BME280;8809;51.892;8.384;2023-05-31T04:11:32;101549.06;;;12.01;100.00
17383;BME280;8809;51.892;8.384;2023-05-31T04:13:59;101545.53;;;12.00;100.00
17383;BME280;8809;51.892;8.384;2023-05-31T04:16:26;101538.59;;;12.01;100.00
17383;BME280;8809;51.892;8.384;2023-05-31T04:18:54;101541.13;;;11.99;100.00
17383;BME280;8809;51.892;8.384;2023-05-31T04:21:22;101548.97;;;11.99;100.00
17383;BME280;8809;51.892;8.384;2023-05-31T04:23:49;101551.59;;;11.99;100.00
17383;BME280;8809;51.892;8.384;2023-05-31T04:26:16;101548.06;;;11.99;100.00
17383;BME280;8809;51.892;8.384;2023-05-31T04:28:44;101556.81;;;11.99;100.00
17383;BME280;8809;51.892;8.384;2023-05-31T04:31:19;101555.91;;;11.99;100.00
17383;BME280;8809;51.892;8.384;2023-05-31T04:33:50;101550.69;;;11.99;100.00
17383;BME280;8809;51.892;8.384;2023-05-31T04:36:24;101552.47;;;12.00;100.00
17383;BME280;8809;51.892;8.384;2023-05-31T04:38:58;101546.34;;;11.99;100.00
17383;BME280;8809;51.892;8.384;2023-05-31T04:41:26;101538.59;;;12.01;100.00
17383;BME280;8809;51.892;8.384;2023-05-31T04:43:54;101547.38;;;12.03;100.00
17383;BME280;8809;51.892;8.384;2023-05-31T04:46:22;101540.59;;;12.06;100.00
17383;BME280;8809;51.892;8.384;2023-05-31T04:48:50;101543.22;;;12.06;100.00
17383;BME280;8809;51.892;8.384;2023-05-31T04:51:17;101547.72;;;12.09;100.00
17383;BME280;8809;51.892;8.384;2023-05-31T04:53:46;101541.72;;;12.11;100.00
17383;BME280;8809;51.892;8.384;2023-05-31T04:56:14;101539.25;;;12.14;100.00
17383;BME280;8809;51.892;8.384;2023-05-31T04:58:42;101536.81;;;12.17;100.00
17383;BME280;8809;51.892;8.384;2023-05-31T05:01:10;101539.50;;;12.19;100.00
17383;BME280;8809;51.892;8.384;2023-05-31T05:03:40;101538.91;;;12.24;100.00
17383;BME280;8809;51.892;8.384;2023-05-31T05:06:18;101540.69;;;12.25;100.00
17383;BME280;8809;51.892;8.384;2023-05-31T05:08:47;101540.03;;;12.30;100.00
17383;BME280;8809;51.892;8.384;2023-05-31T05:11:14;101544.59;;;12.34;100.00
17383;BME280;8809;51.892;8.384;2023-05-31T05:13:42;101549.16;;;12.38;100.00
17383;BME280;8809;51.892;8.384;2023-05-31T05:16:10;101550.28;;;12.43;100.00
17383;BME280;8809;51.892;8.384;2023-05-31T05:18:37;101558.50;;;12.50;100.00
17383;BME280;8809;51.892;8.384;2023-05-31T05:21:05;101552.69;;;12.56;100.00
17383;BME280;8809;51.892;8.384;2023-05-31T05:23:32;101555.13;;;12.53;100.00
17383;BME280;8809;51.892;8.384;2023-05-31T05:26:03;101553.88;;;12.62;100.00
17383;BME280;8809;51.892;8.384;2023-05-31T05:28:30;101550.66;;;12.68;100.00
17383;BME280;8809;51.892;8.384;2023-05-31T05:30:58;101551.75;;;12.73;100.00
17383;BME280;8809;51.892;8.384;2023-05-31T05:33:26;101556.34;;;12.77;100.00
17383;BME280;8809;51.892;8.384;2023-05-31T05:35:54;101552.03;;;12.79;100.00
17383;BME280;8809;51.892;8.384;2023-05-31T05:38:22;101563.56;;;12.83;100.00
17383;BME280;8809;51.892;8.384;2023-05-31T05:40:50;101562.09;;;12.88;100.00
17383;BME280;8809;51.892;8.384;2023-05-31T05:43:18;101564.00;;;12.92;100.00
17383;BME280;8809;51.892;8.384;2023-05-31T05:45:46;101564.16;;;12.95;100.00
17383;BME280;8809;51.892;8.384;2023-05-31T05:48:13;101559.94;;;12.98;100.00
17383;BME280;8809;51.892;8.384;2023-05-31T05:50:44;101560.19;;;13.03;100.00
17383;BME280;8809;51.892;8.384;2023-05-31T05:53:13;101557.63;;;13.05;100.00
17383;BME280;8809;51.892;8.384;2023-05-31T05:55:47;101558.81;;;13.11;100.00
17383;BME280;8809;51.892;8.384;2023-05-31T05:58:16;101567.88;;;13.18;100.00
17383;BME280;8809;51.892;8.384;2023-05-31T06:00:46;101567.13;;;13.20;100.00
17383;BME280;8809;51.892;8.384;2023-05-31T06:03:14;101577.88;;;13.26;100.00
17383;BME280;8809;51.892;8.384;2023-05-31T06:05:42;101575.63;;;13.34;100.00
17383;BME280;8809;51.892;8.384;2023-05-31T06:08:10;101575.09;;;13.41;100.00
17383;BME280;8809;51.892;8.384;2023-05-31T06:10:37;101575.22;;;13.44;100.00
17383;BME280;8809;51.892;8.384;2023-05-31T06:13:06;101578.03;;;13.49;100.00
17383;BME280;8809;51.892;8.384;2023-05-31T06:15:34;101573.03;;;13.53;100.00
17383;BME280;8809;51.892;8.384;2023-05-31T06:18:03;101572.38;;;13.59;100.00
17383;BME280;8809;51.892;8.384;2023-05-31T06:20:30;101578.75;;;13.64;100.00
17383;BME280;8809;51.892;8.384;2023-05-31T06:22:57;101572.94;;;13.71;100.00
17383;BME280;8809;51.892;8.384;2023-05-31T06:25:24;101570.50;;;13.75;100.00
17383;BME280;8809;51.892;8.384;2023-05-31T06:27:51;101574.25;;;13.81;100.00
17383;BME280;8809;51.892;8.384;2023-05-31T06:30:19;101574.50;;;13.87;100.00
17383;BME280;8809;51.892;8.384;2023-05-31T06:32:47;101573.81;;;13.91;100.00
17383;BME280;8809;51.892;8.384;2023-05-31T06:35:16;101571.59;;;14.00;100.00
17383;BME280;8809;51.892;8.384;2023-05-31T06:37:43;101573.72;;;14.08;100.00
17383;BME280;8809;51.892;8.384;2023-05-31T06:40:21;101584.59;;;14.18;100.00
17383;BME280;8809;51.892;8.384;2023-05-31T06:42:49;101574.41;;;14.25;100.00
17383;BME280;8809;51.892;8.384;2023-05-31T06:45:17;101572.19;;;14.34;100.00
17383;BME280;8809;51.892;8.384;2023-05-31T06:47:44;101576.03;;;14.42;100.00
17383;BME280;8809;51.892;8.384;2023-05-31T06:50:11;101568.38;;;14.47;100.00
17383;BME280;8809;51.892;8.384;2023-05-31T06:52:41;101577.38;;;14.54;100.00
17383;BME280;8809;51.892;8.384;2023-05-31T06:55:09;101568.94;;;14.61;100.00
17383;BME280;8809;51.892;8.384;2023-05-31T06:57:37;101572.78;;;14.69;100.00
17383;BME280;8809;51.892;8.384;2023-05-31T07:00:05;101575.72;;;14.76;100.00
17383;BME280;8809;51.892;8.384;2023-05-31T07:02:32;101567.16;;;14.82;100.00
17383;BME280;8809;51.892;8.384;2023-05-31T07:05:00;101579.84;;;14.92;100.00
17383;BME280;8809;51.892;8.384;2023-05-31T07:07:27;101570.50;;;15.00;100.00
17383;BME280;8809;51.892;8.384;2023-05-31T07:09:56;101569.09;;;15.08;100.00
17383;BME280;8809;51.892;8.384;2023-05-31T07:12:24;101571.19;;;15.17;100.00
17383;BME280;8809;51.892;8.384;2023-05-31T07:14:51;101563.66;;;15.26;100.00
17383;BME280;8809;51.892;8.384;2023-05-31T07:17:19;101564.00;;;15.35;100.00
17383;BME280;8809;51.892;8.384;2023-05-31T07:19:47;101559.00;;;15.43;100.00
17383;BME280;8809;51.892;8.384;2023-05-31T07:22:19;101562.88;;;15.52;100.00
17383;BME280;8809;51.892;8.384;2023-05-31T07:24:48;101555.53;;;15.66;100.00
17383;BME280;8809;51.892;8.384;2023-05-31T07:27:16;101565.69;;;15.81;100.00
17383;BME280;8809;51.892;8.384;2023-05-31T07:29:44;101560.88;;;15.93;100.00
17383;BME280;8809;51.892;8.384;2023-05-31T07:32:11;101564.78;;;16.04;100.00
17383;BME280;8809;51.892;8.384;2023-05-31T07:34:38;101560.75;;;16.14;100.00
17383;BME280;8809;51.892;8.384;2023-05-31T07:37:06;101562.66;;;16.19;100.00
17383;BME280;8809;51.892;8.384;2023-05-31T07:39:34;101550.59;;;16.26;100.00
17383;BME280;8809;51.892;8.384;2023-05-31T07:42:01;101557.97;;;16.36;100.00
17383;BME280;8809;51.892;8.384;2023-05-31T07:44:32;101555.56;;;16.42;100.00
17383;BME280;8809;51.892;8.384;2023-05-31T07:47:00;101552.22;;;16.48;100.00
17383;BME280;8809;51.892;8.384;2023-05-31T07:49:29;101551.56;;;16.55;100.00
17383;BME280;8809;51.892;8.384;2023-05-31T07:51:57;101553.50;;;16.60;100.00
17383;BME280;8809;51.892;8.384;2023-05-31T07:54:24;101548.47;;;16.66;100.00
17383;BME280;8809;51.892;8.384;2023-05-31T07:56:51;101551.38;;;16.76;100.00
17383;BME280;8809;51.892;8.384;2023-05-31T07:59:19;101553.38;;;16.83;100.00
17383;BME280;8809;51.892;8.384;2023-05-31T08:01:48;101549.25;;;16.91;100.00
17383;BME280;8809;51.892;8.384;2023-05-31T08:04:15;101551.22;;;16.98;100.00
17383;BME280;8809;51.892;8.384;2023-05-31T08:06:42;101552.50;;;17.11;99.32
17383;BME280;8809;51.892;8.384;2023-05-31T08:09:10;101556.31;;;17.20;96.34
17383;BME280;8809;51.892;8.384;2023-05-31T08:11:37;101552.94;;;17.26;95.56
17383;BME280;8809;51.892;8.384;2023-05-31T08:14:05;101550.72;;;17.39;96.60
17383;BME280;8809;51.892;8.384;2023-05-31T08:16:33;101559.81;;;17.51;97.65
17383;BME280;8809;51.892;8.384;2023-05-31T08:19:03;101549.47;;;17.57;96.56
17383;BME280;8809;51.892;8.384;2023-05-31T08:21:31;101549.75;;;17.66;95.05
17383;BME280;8809;51.892;8.384;2023-05-31T08:23:58;101550.97;;;17.78;92.42
17383;BME280;8809;51.892;8.384;2023-05-31T08:26:26;101548.69;;;17.92;90.82
17383;BME280;8809;51.892;8.384;2023-05-31T08:28:53;101545.47;;;18.02;91.39
17383;BME280;8809;51.892;8.384;2023-05-31T08:31:21;101539.59;;;18.14;91.46
17383;BME280;8809;51.892;8.384;2023-05-31T08:33:53;101542.53;;;18.25;91.92
17383;BME280;8809;51.892;8.384;2023-05-31T08:36:23;101539.25;;;18.35;92.35
17383;BME280;8809;51.892;8.384;2023-05-31T08:38:51;101542.97;;;18.43;92.12
17383;BME280;8809;51.892;8.384;2023-05-31T08:41:19;101541.50;;;18.54;95.34
17383;BME280;8809;51.892;8.384;2023-05-31T08:43:48;101540.91;;;18.66;92.54
17383;BME280;8809;51.892;8.384;2023-05-31T08:46:15;101533.28;;;18.78;92.95
17383;BME280;8809;51.892;8.384;2023-05-31T08:48:46;101531.84;;;18.94;96.84
17383;BME280;8809;51.892;8.384;2023-05-31T08:51:18;101533.84;;;19.04;93.71
17383;BME280;8809;51.892;8.384;2023-05-31T08:53:48;101530.69;;;19.20;93.03
17383;BME280;8809;51.892;8.384;2023-05-31T08:56:19;101526.72;;;19.40;90.31
17383;BME280;8809;51.892;8.384;2023-05-31T08:58:49;101524.44;;;19.57;83.97
17383;BME280;8809;51.892;8.384;2023-05-31T09:01:17;101523.09;;;19.79;84.35
17383;BME280;8809;51.892;8.384;2023-05-31T09:03:44;101528.81;;;20.03;84.43
17383;BME280;8809;51.892;8.384;2023-05-31T09:06:13;101528.41;;;20.30;84.45
17383;BME280;8809;51.892;8.384;2023-05-31T09:08:42;101528.88;;;20.56;85.21
17383;BME280;8809;51.892;8.384;2023-05-31T09:11:12;101530.94;;;20.77;78.43
17383;BME280;8809;51.892;8.384;2023-05-31T09:13:40;101532.16;;;20.98;77.04
17383;BME280;8809;51.892;8.384;2023-05-31T09:16:07;101522.75;;;21.20;78.65
17383;BME280;8809;51.892;8.384;2023-05-31T09:18:36;101527.44;;;21.41;75.77
17383;BME280;8809;51.892;8.384;2023-05-31T09:21:08;101535.69;;;21.65;76.68
17383;BME280;8809;51.892;8.384;2023-05-31T09:23:37;101528.81;;;21.84;75.89
17383;BME280;8809;51.892;8.384;2023-05-31T09:26:07;101529.09;;;22.07;74.37
17383;BME280;8809;51.892;8.384;2023-05-31T09:28:37;101523.09;;;22.32;76.83
17383;BME280;8809;51.892;8.384;2023-05-31T09:31:06;101525.06;;;22.54;75.38
17383;BME280;8809;51.892;8.384;2023-05-31T09:33:38;101521.69;;;22.77;76.28
17383;BME280;8809;51.892;8.384;2023-05-31T09:36:07;101519.16;;;23.01;78.56
17383;BME280;8809;51.892;8.384;2023-05-31T09:38:40;101521.06;;;23.23;75.70
17383;BME280;8809;51.892;8.384;2023-05-31T09:41:14;101521.16;;;23.43;70.56
17383;BME280;8809;51.892;8.384;2023-05-31T09:43:46;101526.56;;;23.60;66.03
17383;BME280;8809;51.892;8.384;2023-05-31T09:46:15;101512.38;;;23.75;67.88
17383;BME280;8809;51.892;8.384;2023-05-31T09:48:45;101512.41;;;23.87;65.51
17383;BME280;8809;51.892;8.384;2023-05-31T09:51:14;101509.78;;;24.02;66.82
17383;BME280;8809;51.892;8.384;2023-05-31T09:53:42;101514.22;;;24.18;68.86
17383;BME280;8809;51.892;8.384;2023-05-31T09:56:10;101509.81;;;24.25;66.13
17383;BME280;8809;51.892;8.384;2023-05-31T09:58:38;101513.38;;;24.37;69.38
17383;BME280;8809;51.892;8.384;2023-05-31T10:01:08;101512.47;;;24.51;68.08
17383;BME280;8809;51.892;8.384;2023-05-31T10:03:37;101508.00;;;24.54;64.06
17383;BME280;8809;51.892;8.384;2023-05-31T10:06:06;101499.13;;;24.60;65.39
17383;BME280;8809;51.892;8.384;2023-05-31T10:08:34;101505.34;;;24.69;67.04
17383;BME280;8809;51.892;8.384;2023-05-31T10:11:04;101499.97;;;24.74;65.40
17383;BME280;8809;51.892;8.384;2023-05-31T10:13:31;101502.59;;;24.82;66.14
17383;BME280;8809;51.892;8.384;2023-05-31T10:16:05;101503.53;;;24.79;58.66
17383;BME280;8809;51.892;8.384;2023-05-31T10:18:37;101488.44;;;24.67;59.93
17383;BME280;8809;51.892;8.384;2023-05-31T10:21:09;101488.41;;;24.73;61.83
17383;BME280;8809;51.892;8.384;2023-05-31T10:23:43;101475.91;;;24.83;62.79
17383;BME280;8809;51.892;8.384;2023-05-31T10:26:15;101482.16;;;24.87;61.15
17383;BME280;8809;51.892;8.384;2023-05-31T10:28:49;101480.38;;;24.95;61.10
17383;BME280;8809;51.892;8.384;2023-05-31T10:31:19;101481.22;;;25.04;61.21
17383;BME280;8809;51.892;8.384;2023-05-31T10:33:53;101486.50;;;25.21;64.55
17383;BME280;8809;51.892;8.384;2023-05-31T10:36:27;101479.31;;;25.31;64.10
17383;BME280;8809;51.892;8.384;2023-05-31T10:38:58;101478.38;;;25.45;65.55
17383;BME280;8809;51.892;8.384;2023-05-31T10:41:32;101482.78;;;25.49;61.69
17383;BME280;8809;51.892;8.384;2023-05-31T10:44:09;101479.22;;;25.52;62.05
17383;BME280;8809;51.892;8.384;2023-05-31T10:46:38;101474.78;;;25.49;57.18
17383;BME280;8809;51.892;8.384;2023-05-31T10:49:09;101473.84;;;25.60;59.30
17383;BME280;8809;51.892;8.384;2023-05-31T10:51:38;101471.06;;;25.78;62.53
17383;BME280;8809;51.892;8.384;2023-05-31T10:54:07;101474.53;;;25.89;60.77
17383;BME280;8809;51.892;8.384;2023-05-31T10:56:36;101462.94;;;25.92;57.73
17383;BME280;8809;51.892;8.384;2023-05-31T10:59:08;101458.44;;;26.00;57.82
17383;BME280;8809;51.892;8.384;2023-05-31T11:01:38;101456.59;;;26.05;61.07
17383;BME280;8809;51.892;8.384;2023-05-31T11:04:21;101468.97;;;26.18;62.29
17383;BME280;8809;51.892;8.384;2023-05-31T11:06:54;101459.09;;;26.29;61.56
17383;BME280;8809;51.892;8.384;2023-05-31T11:09:25;101471.44;;;26.44;61.87
17383;BME280;8809;51.892;8.384;2023-05-31T11:11:56;101465.13;;;26.52;61.66
17383;BME280;8809;51.892;8.384;2023-05-31T11:14:26;101458.72;;;26.66;60.86
17383;BME280;8809;51.892;8.384;2023-05-31T11:17:14;101461.34;;;26.70;61.06
17383;BME280;8809;51.892;8.384;2023-05-31T11:19:50;101463.97;;;26.76;59.96
17383;BME280;8809;51.892;8.384;2023-05-31T11:22:22;101452.31;;;26.80;60.25
17383;BME280;8809;51.892;8.384;2023-05-31T11:24:51;101455.88;;;26.81;57.97
17383;BME280;8809;51.892;8.384;2023-05-31T11:27:19;101452.31;;;26.80;56.98
17383;BME280;8809;51.892;8.384;2023-05-31T11:29:56;101450.47;;;26.85;55.41
17383;BME280;8809;51.892;8.384;2023-05-31T11:35:33;101453.81;;;27.06;60.83
17383;BME280;8809;51.892;8.384;2023-05-31T11:38:03;101444.78;;;27.14;60.32
17383;BME280;8809;51.892;8.384;2023-05-31T11:40:32;101441.97;;;27.25;60.83
17383;BME280;8809;51.892;8.384;2023-05-31T11:43:04;101443.69;;;27.29;58.63
17383;BME280;8809;51.892;8.384;2023-05-31T11:45:33;101441.78;;;27.37;60.76
17383;BME280;8809;51.892;8.384;2023-05-31T11:50:55;101442.56;;;27.45;56.83
17383;BME280;8809;51.892;8.384;2023-05-31T11:53:23;101425.44;;;27.58;60.06
17383;BME280;8809;51.892;8.384;2023-05-31T11:55:53;101422.69;;;27.61;56.75
17383;BME280;8809;51.892;8.384;2023-05-31T11:58:20;101421.75;;;27.64;58.82
17383;BME280;8809;51.892;8.384;2023-05-31T12:00:48;101420.81;;;27.68;57.98
17383;BME280;8809;51.892;8.384;2023-05-31T12:03:16;101423.38;;;27.76;59.73
17383;BME280;8809;51.892;8.384;2023-05-31T12:05:53;101424.19;;;27.79;58.04
17383;BME280;8809;51.892;8.384;2023-05-31T12:08:26;101415.19;;;27.85;57.96
17383;BME280;8809;51.892;8.384;2023-05-31T12:11:01;101419.63;;;27.86;57.41
17383;BME280;8809;51.892;8.384;2023-05-31T12:13:30;101413.31;;;27.88;56.25
17383;BME280;8809;51.892;8.384;2023-05-31T12:15:57;101416.84;;;27.90;56.96
17383;BME280;8809;51.892;8.384;2023-05-31T12:18:25;101411.50;;;27.90;55.30
17383;BME280;8809;51.892;8.384;2023-05-31T12:20:53;101408.78;;;27.92;57.30
17383;BME280;8809;51.892;8.384;2023-05-31T12:23:24;101409.56;;;27.98;57.31
17383;BME280;8809;51.892;8.384;2023-05-31T12:25:57;101396.22;;;27.95;54.04
17383;BME280;8809;51.892;8.384;2023-05-31T12:28:27;101397.91;;;27.99;54.95
17383;BME280;8809;51.892;8.384;2023-05-31T12:30:54;101408.59;;;28.02;56.00
17383;BME280;8809;51.892;8.384;2023-05-31T12:33:22;101400.53;;;28.04;54.68
17383;BME280;8809;51.892;8.384;2023-05-31T12:35:50;101388.81;;;28.08;56.21
17383;BME280;8809;51.892;8.384;2023-05-31T12:38:26;101394.16;;;28.10;54.72
17383;BME280;8809;51.892;8.384;2023-05-31T12:40:55;101395.81;;;28.18;57.17
17383;BME280;8809;51.892;8.384;2023-05-31T12:43:23;101399.47;;;28.14;54.47
17383;BME280;8809;51.892;8.384;2023-05-31T12:45:54;101394.06;;;28.17;54.57
17383;BME280;8809;51.892;8.384;2023-05-31T12:48:22;101394.03;;;28.19;53.84
17383;BME280;8809;51.892;8.384;2023-05-31T12:50:50;101379.63;;;28.24;53.97
17383;BME280;8809;51.892;8.384;2023-05-31T12:53:20;101387.72;;;28.21;53.97
17383;BME280;8809;51.892;8.384;2023-05-31T12:55:48;101377.72;;;28.29;56.73
17383;BME280;8809;51.892;8.384;2023-05-31T12:58:17;101386.53;;;28.36;57.57
17383;BME280;8809;51.892;8.384;2023-05-31T13:00:45;101379.38;;;28.36;56.82
17383;BME280;8809;51.892;8.384;2023-05-31T13:03:13;101377.72;;;28.29;55.33
17383;BME280;8809;51.892;8.384;2023-05-31T13:05:42;101370.59;;;28.28;55.26
17383;BME280;8809;51.892;8.384;2023-05-31T13:08:09;101373.41;;;28.22;54.47
17383;BME280;8809;51.892;8.384;2023-05-31T13:10:37;101365.41;;;28.19;52.69